Time;durP1;ratioP1;P1;durP2;ratioP2;P2;SDS_P1;SDS_P2;PMS_P1;PMS_P2;Temp;Humidity;BMP_temperature;BMP_pressure;BME280_temperature;BME280_humidity;BME280_pressure;Samples;Min_cycle;Max_cycle;Signal;HPM_P1;HPM_P2
2022/01/15 00:01:28;;;;;;;90.45;62.13;;;;;;;;;;5125715;27;20035;-47
2022/01/15 00:03:54;;;;;;;108.28;81.05;;;;;;;;;;5126384;27;20034;-46
2022/01/15 00:06:19;;;;;;;112.38;81.60;;;;;;;;;;5128113;27;20027;-46
2022/01/15 00:08:44;;;;;;;75.15;58.95;;;;;;;;;;5127146;27;20022;-49
2022/01/15 00:11:10;;;;;;;84.72;54.47;;;;;;;;;;5127163;27;20019;-49
2022/01/15 00:13:38;;;;;;;67.45;49.60;;;;;;;;;;5124937;27;20007;-47
2022/01/15 00:16:26;;;;;;;77.68;54.50;;;;;;;;;;5125786;27;20054;-48
2022/01/15 00:19:09;;;;;;;56.33;48.15;;;;;;;;;;5120653;27;20765;-44
2022/01/15 00:21:35;;;;;;;75.35;47.22;;;;;;;;;;5119229;27;20043;-47
2022/01/15 00:24:00;;;;;;;64.35;47.95;;;;;;;;;;5124116;27;20038;-46
2022/01/15 00:26:25;;;;;;;61.70;47.55;;;;;;;;;;5124481;27;20076;-49
2022/01/15 00:28:51;;;;;;;56.67;46.45;;;;;;;;;;5127390;27;20031;-49
2022/01/15 00:31:16;;;;;;;94.90;64.85;;;;;;;;;;5127086;27;20029;-47
2022/01/15 00:33:41;;;;;;;76.13;60.15;;;;;;;;;;5127031;27;20030;-49
2022/01/15 00:36:07;;;;;;;75.10;53.33;;;;;;;;;;5126097;27;20800;-45
2022/01/15 00:38:32;;;;;;;61.63;46.47;;;;;;;;;;5126048;27;20021;-46
2022/01/15 00:40:57;;;;;;;59.30;46.45;;;;;;;;;;5126413;27;20055;-47
2022/01/15 00:43:23;;;;;;;66.15;48.28;;;;;;;;;;5125967;27;20062;-50
2022/01/15 00:45:49;;;;;;;95.32;55.75;;;;;;;;;;5127100;27;20393;-46
2022/01/15 00:48:14;;;;;;;65.10;52.10;;;;;;;;;;5125295;27;20049;-46
2022/01/15 00:50:39;;;;;;;48.20;38.83;;;;;;;;;;5125400;27;20023;-49
2022/01/15 00:53:05;;;;;;;59.28;38.47;;;;;;;;;;5124330;27;20059;-44
2022/01/15 00:55:30;;;;;;;50.63;37.72;;;;;;;;;;5125902;27;20015;-48
2022/01/15 00:57:56;;;;;;;36.45;30.40;;;;;;;;;;5124647;27;20015;-48
2022/01/15 01:00:22;;;;;;;44.22;34.38;;;;;;;;;;5123303;27;20023;-48
2022/01/15 01:02:48;;;;;;;50.17;38.88;;;;;;;;;;5126207;27;20439;-46
2022/01/15 01:05:13;;;;;;;51.97;38.30;;;;;;;;;;5125193;27;20091;-45
2022/01/15 01:07:38;;;;;;;40.55;30.55;;;;;;;;;;5125199;27;20118;-48
2022/01/15 01:23:19;;;;;;;36.33;32.45;;;;;;;;;;5124794;27;20586;-48
2022/01/15 01:25:48;;;;;;;52.05;36.13;;;;;;;;;;5126500;27;20038;-53
2022/01/15 01:28:30;;;;;;;40.85;33.97;;;;;;;;;;5126206;27;20125;-46
2022/01/15 01:31:10;;;;;;;43.95;35.00;;;;;;;;;;5127122;27;20534;-45
2022/01/15 01:33:39;;;;;;;57.60;37.67;;;;;;;;;;5122326;27;20031;-51
2022/01/15 01:38:39;;;;;;;53.05;34.45;;;;;;;;;;5124176;27;20596;-48
2022/01/15 01:41:06;;;;;;;42.03;36.67;;;;;;;;;;5123850;27;20044;-47
2022/01/15 01:48:36;;;;;;;47.47;33.95;;;;;;;;;;5124592;27;20280;-48
2022/01/15 01:51:01;;;;;;;42.22;34.53;;;;;;;;;;5125143;27;20550;-48
2022/01/15 01:53:26;;;;;;;42.60;36.88;;;;;;;;;;5124070;27;20027;-47
2022/01/15 01:55:52;;;;;;;54.92;37.92;;;;;;;;;;5124079;27;20537;-45
2022/01/15 01:58:17;;;;;;;45.63;36.78;;;;;;;;;;5123866;27;20091;-49
2022/01/15 02:00:42;;;;;;;46.38;37.33;;;;;;;;;;5125707;27;20030;-46
2022/01/15 02:03:08;;;;;;;58.22;38.38;;;;;;;;;;5125570;27;20346;-51
2022/01/15 02:05:33;;;;;;;61.55;35.28;;;;;;;;;;5124842;27;20482;-47
2022/01/15 02:07:58;;;;;;;46.78;32.10;;;;;;;;;;5125010;27;20046;-48
2022/01/15 02:10:24;;;;;;;43.92;26.67;;;;;;;;;;5123776;27;20065;-50
2022/01/15 02:12:55;;;;;;;26.73;21.17;;;;;;;;;;5125923;27;20489;-49
2022/01/15 02:15:21;;;;;;;26.70;19.42;;;;;;;;;;5122482;27;20043;-46
2022/01/15 02:17:46;;;;;;;26.67;21.10;;;;;;;;;;5125459;27;20063;-50
2022/01/15 02:25:47;;;;;;;26.88;21.52;;;;;;;;;;5125379;27;20134;-46
2022/01/15 02:28:16;;;;;;;46.35;25.70;;;;;;;;;;5124802;27;20023;-44
2022/01/15 02:30:44;;;;;;;22.92;19.10;;;;;;;;;;5124355;27;20031;-51
2022/01/15 02:33:09;;;;;;;22.05;19.50;;;;;;;;;;5120854;28;20027;-48
2022/01/15 02:35:35;;;;;;;28.60;18.75;;;;;;;;;;5127536;27;20019;-47
2022/01/15 02:38:04;;;;;;;25.80;19.63;;;;;;;;;;5132939;27;20015;-48
2022/01/15 02:40:33;;;;;;;28.02;19.65;;;;;;;;;;5133402;27;20506;-50
2022/01/15 02:43:03;;;;;;;26.33;20.85;;;;;;;;;;5131813;27;20735;-45
2022/01/15 02:45:29;;;;;;;36.95;22.02;;;;;;;;;;5132996;27;20045;-48
2022/01/15 02:48:00;;;;;;;17.98;14.00;;;;;;;;;;5133534;27;20015;-52
2022/01/15 02:50:26;;;;;;;21.65;15.13;;;;;;;;;;5126480;27;20031;-49
2022/01/15 02:52:51;;;;;;;15.80;11.93;;;;;;;;;;5130120;27;20033;-47
2022/01/15 02:55:16;;;;;;;17.02;10.43;;;;;;;;;;5130922;27;20015;-48
2022/01/15 02:57:42;;;;;;;18.83;12.93;;;;;;;;;;5130075;27;20437;-51
2022/01/15 03:00:08;;;;;;;25.45;16.45;;;;;;;;;;5131560;27;20019;-47
2022/01/15 03:02:33;;;;;;;18.20;13.02;;;;;;;;;;5130833;27;20494;-45
2022/01/15 03:04:59;;;;;;;19.63;12.18;;;;;;;;;;5131180;27;20097;-47
2022/01/15 03:07:27;;;;;;;18.05;12.38;;;;;;;;;;5131088;27;20491;-47
2022/01/15 03:09:52;;;;;;;24.20;12.77;;;;;;;;;;5131531;27;20050;-46
2022/01/15 03:12:22;;;;;;;27.88;10.75;;;;;;;;;;5132125;27;20100;-47
2022/01/15 03:14:54;;;;;;;16.67;9.80;;;;;;;;;;5131482;27;20071;-47
2022/01/15 03:17:20;;;;;;;17.25;8.38;;;;;;;;;;5131464;27;20047;-50
2022/01/15 03:19:45;;;;;;;13.65;8.32;;;;;;;;;;5130610;27;20062;-44
2022/01/15 03:22:10;;;;;;;10.40;6.93;;;;;;;;;;5128350;27;20051;-49
2022/01/15 03:24:35;;;;;;;10.18;7.03;;;;;;;;;;5131684;27;20023;-46
2022/01/15 03:27:01;;;;;;;14.52;6.93;;;;;;;;;;5131680;27;20027;-51
2022/01/15 03:29:26;;;;;;;7.43;5.78;;;;;;;;;;5131478;27;20450;-46
2022/01/15 03:31:51;;;;;;;7.20;4.40;;;;;;;;;;5131472;27;20417;-50
2022/01/15 03:34:17;;;;;;;7.72;6.38;;;;;;;;;;5131936;27;20162;-45
2022/01/15 03:36:42;;;;;;;8.02;5.13;;;;;;;;;;5131618;27;20089;-46
2022/01/15 03:39:07;;;;;;;11.82;4.82;;;;;;;;;;5131458;27;20094;-45
2022/01/15 03:41:33;;;;;;;6.80;5.30;;;;;;;;;;5131016;27;20038;-46
2022/01/15 03:43:58;;;;;;;12.20;6.28;;;;;;;;;;5131907;27;20042;-46
2022/01/15 03:46:23;;;;;;;9.20;4.68;;;;;;;;;;5130556;27;20027;-45
2022/01/15 03:48:49;;;;;;;10.60;5.45;;;;;;;;;;5127795;27;20019;-46
2022/01/15 03:51:19;;;;;;;7.78;3.72;;;;;;;;;;5130023;27;20062;-49
2022/01/15 03:53:44;;;;;;;9.50;7.50;;;;;;;;;;5128824;27;20426;-48
2022/01/15 03:56:09;;;;;;;10.00;7.00;;;;;;;;;;5129886;27;20121;-46
2022/01/15 03:58:35;;;;;;;11.15;6.00;;;;;;;;;;5127147;27;20079;-46
2022/01/15 04:01:00;;;;;;;5.40;3.92;;;;;;;;;;5128758;27;20423;-45
2022/01/15 04:03:25;;;;;;;8.15;4.15;;;;;;;;;;5129965;27;20059;-46
2022/01/15 04:05:51;;;;;;;10.25;4.90;;;;;;;;;;5124717;27;20019;-46
2022/01/15 04:08:16;;;;;;;12.13;5.80;;;;;;;;;;5127249;27;20058;-46
2022/01/15 04:10:42;;;;;;;4.47;2.40;;;;;;;;;;5126646;27;20156;-50
2022/01/15 04:13:07;;;;;;;7.00;4.05;;;;;;;;;;5126136;27;20042;-45
2022/01/15 04:15:33;;;;;;;8.82;3.15;;;;;;;;;;5127314;27;20058;-46
2022/01/15 04:17:59;;;;;;;6.63;3.13;;;;;;;;;;5125920;27;20443;-49
2022/01/15 04:20:24;;;;;;;6.28;3.50;;;;;;;;;;5106987;27;20462;-46
2022/01/15 04:22:50;;;;;;;5.00;3.28;;;;;;;;;;5125892;27;20117;-47
2022/01/15 04:25:17;;;;;;;6.28;4.43;;;;;;;;;;5126039;27;20023;-49
2022/01/15 04:27:44;;;;;;;14.50;5.70;;;;;;;;;;5126181;27;20030;-47
2022/01/15 04:30:12;;;;;;;8.75;4.95;;;;;;;;;;5126093;27;20052;-46
2022/01/15 04:32:37;;;;;;;9.55;5.75;;;;;;;;;;5126334;27;20030;-47
2022/01/15 04:35:02;;;;;;;25.85;10.23;;;;;;;;;;5126583;27;20027;-45
2022/01/15 04:37:44;;;;;;;14.23;6.47;;;;;;;;;;5126412;27;20023;-45
2022/01/15 04:40:11;;;;;;;9.80;6.78;;;;;;;;;;5126908;27;20027;-45
2022/01/15 04:42:36;;;;;;;12.40;8.55;;;;;;;;;;5127061;27;20027;-50
2022/01/15 04:45:03;;;;;;;8.57;5.82;;;;;;;;;;5125954;27;20027;-45
2022/01/15 04:47:29;;;;;;;10.05;4.20;;;;;;;;;;5125969;27;20096;-46
2022/01/15 04:49:55;;;;;;;13.35;8.82;;;;;;;;;;5125000;27;20436;-46
2022/01/15 04:52:23;;;;;;;7.72;4.65;;;;;;;;;;5126011;27;20588;-45
2022/01/15 04:54:49;;;;;;;15.95;5.72;;;;;;;;;;5126721;27;20055;-46
2022/01/15 04:57:14;;;;;;;7.72;6.32;;;;;;;;;;5125537;27;20061;-48
2022/01/15 04:59:39;;;;;;;13.23;5.25;;;;;;;;;;5126418;27;20521;-48
2022/01/15 05:02:04;;;;;;;8.55;3.78;;;;;;;;;;5125234;27;20700;-46
2022/01/15 05:04:30;;;;;;;5.28;2.63;;;;;;;;;;5126165;27;20019;-44
2022/01/15 05:06:55;;;;;;;4.30;3.30;;;;;;;;;;5126853;27;20545;-44
2022/01/15 05:09:20;;;;;;;12.55;3.65;;;;;;;;;;5126522;27;20019;-46
2022/01/15 05:11:59;;;;;;;8.30;4.82;;;;;;;;;;5126919;27;20019;-45
2022/01/15 05:14:25;;;;;;;8.27;5.45;;;;;;;;;;5126937;27;20021;-44
2022/01/15 05:16:50;;;;;;;5.25;4.18;;;;;;;;;;5128146;27;20452;-46
2022/01/15 05:19:15;;;;;;;6.38;4.50;;;;;;;;;;5123569;27;20019;-48
2022/01/15 05:21:41;;;;;;;4.82;3.80;;;;;;;;;;5127026;27;20042;-48
2022/01/15 05:24:06;;;;;;;5.68;4.25;;;;;;;;;;5127589;27;20645;-47
2022/01/15 05:26:31;;;;;;;3.63;2.40;;;;;;;;;;5127510;27;20026;-47
2022/01/15 05:28:57;;;;;;;4.25;2.47;;;;;;;;;;5126517;27;20015;-46
2022/01/15 05:31:23;;;;;;;3.65;2.25;;;;;;;;;;5126300;27;20015;-46
2022/01/15 05:33:48;;;;;;;2.85;1.83;;;;;;;;;;5126521;27;20689;-45
2022/01/15 05:36:13;;;;;;;3.70;2.15;;;;;;;;;;5126346;27;20072;-44
2022/01/15 05:38:39;;;;;;;4.38;1.98;;;;;;;;;;5126525;27;20047;-45
2022/01/15 05:41:04;;;;;;;3.92;1.90;;;;;;;;;;5126260;27;20322;-48
2022/01/15 05:43:29;;;;;;;8.02;3.40;;;;;;;;;;5127125;27;20501;-46
2022/01/15 05:45:55;;;;;;;25.90;11.57;;;;;;;;;;5127247;27;20023;-50
2022/01/15 05:48:20;;;;;;;4.80;3.78;;;;;;;;;;5127688;27;20377;-49
2022/01/15 05:50:46;;;;;;;2.67;1.70;;;;;;;;;;5127045;27;20493;-47
2022/01/15 05:53:12;;;;;;;7.32;5.35;;;;;;;;;;5125540;27;20143;-45
2022/01/15 05:55:37;;;;;;;8.05;5.90;;;;;;;;;;5108943;27;20102;-46
2022/01/15 05:58:02;;;;;;;6.20;4.43;;;;;;;;;;5126012;27;20011;-49
2022/01/15 06:00:28;;;;;;;3.90;2.38;;;;;;;;;;5126429;27;20106;-49
2022/01/15 06:02:53;;;;;;;2.60;1.77;;;;;;;;;;5126235;27;20023;-48
2022/01/15 06:05:18;;;;;;;4.97;2.03;;;;;;;;;;5126071;27;20039;-50
2022/01/15 06:07:43;;;;;;;3.22;1.83;;;;;;;;;;5108608;27;20622;-48
2022/01/15 06:10:09;;;;;;;4.13;2.53;;;;;;;;;;5126044;27;20490;-48
2022/01/15 06:12:42;;;;;;;34.25;13.57;;;;;;;;;;5125990;27;20019;-41
2022/01/15 06:15:08;;;;;;;8.60;2.60;;;;;;;;;;5125544;27;20047;-47
2022/01/15 06:17:33;;;;;;;5.65;2.67;;;;;;;;;;5126319;27;20049;-42
2022/01/15 06:19:58;;;;;;;5.13;3.53;;;;;;;;;;5126181;27;20130;-47
2022/01/15 06:22:24;;;;;;;5.72;3.47;;;;;;;;;;5125949;27;20039;-44
2022/01/15 06:24:49;;;;;;;11.10;3.78;;;;;;;;;;5126797;27;20039;-41
2022/01/15 06:27:16;;;;;;;5.47;3.35;;;;;;;;;;5127109;27;20090;-42
2022/01/15 06:29:41;;;;;;;4.45;2.63;;;;;;;;;;5126991;27;20027;-43
2022/01/15 06:32:07;;;;;;;15.20;5.15;;;;;;;;;;5126649;27;20517;-44
2022/01/15 06:34:32;;;;;;;32.63;14.60;;;;;;;;;;5125620;28;20011;-44
2022/01/15 06:36:58;;;;;;;22.45;12.18;;;;;;;;;;5125630;28;20007;-41
2022/01/15 06:39:23;;;;;;;16.63;9.90;;;;;;;;;;5125319;28;20546;-41
2022/01/15 06:41:48;;;;;;;7.22;4.70;;;;;;;;;;5125841;28;20490;-43
2022/01/15 06:44:13;;;;;;;12.02;7.65;;;;;;;;;;5125981;28;20016;-44
2022/01/15 06:46:39;;;;;;;11.48;3.10;;;;;;;;;;5125398;28;20023;-46
2022/01/15 06:49:04;;;;;;;5.93;4.03;;;;;;;;;;5126472;28;20016;-46
2022/01/15 06:51:29;;;;;;;7.93;4.63;;;;;;;;;;5125909;28;20566;-43
2022/01/15 06:53:55;;;;;;;10.35;4.88;;;;;;;;;;5125600;28;20466;-42
2022/01/15 06:56:20;;;;;;;15.98;5.68;;;;;;;;;;5124484;28;20023;-43
2022/01/15 06:58:46;;;;;;;11.80;2.90;;;;;;;;;;5125481;27;20466;-44
2022/01/15 07:01:11;;;;;;;16.48;4.07;;;;;;;;;;5126247;28;20019;-48
2022/01/15 07:03:37;;;;;;;3.97;2.38;;;;;;;;;;5125379;28;20019;-44
2022/01/15 07:06:02;;;;;;;5.45;2.33;;;;;;;;;;5124244;28;20716;-43
2022/01/15 07:08:27;;;;;;;4.97;3.63;;;;;;;;;;5125152;28;20532;-42
2022/01/15 07:10:52;;;;;;;4.30;3.17;;;;;;;;;;5125787;28;20501;-43
2022/01/15 07:13:21;;;;;;;7.43;5.13;;;;;;;;;;5123880;28;20731;-41
2022/01/15 07:15:47;;;;;;;11.57;6.68;;;;;;;;;;5122786;28;20097;-41
2022/01/15 07:18:12;;;;;;;15.57;7.97;;;;;;;;;;5125859;28;20012;-42
2022/01/15 07:20:38;;;;;;;8.60;6.82;;;;;;;;;;5126402;28;20479;-40
2022/01/15 07:23:03;;;;;;;13.52;6.95;;;;;;;;;;5128562;27;20480;-42
2022/01/15 07:25:28;;;;;;;12.95;7.93;;;;;;;;;;5128147;27;20135;-42
2022/01/15 07:27:54;;;;;;;28.67;16.77;;;;;;;;;;5126273;27;20022;-42
2022/01/15 07:30:20;;;;;;;28.42;22.23;;;;;;;;;;5117388;27;20030;-40
2022/01/15 07:32:46;;;;;;;49.30;33.63;;;;;;;;;;5126058;27;20031;-39
2022/01/15 07:35:12;;;;;;;44.60;39.58;;;;;;;;;;5125481;27;20027;-41
2022/01/15 07:37:37;;;;;;;34.42;30.33;;;;;;;;;;5128850;27;20019;-39
2022/01/15 07:40:03;;;;;;;28.50;25.35;;;;;;;;;;5126507;27;20023;-38
2022/01/15 07:42:34;;;;;;;22.92;20.80;;;;;;;;;;5128213;27;20023;-41
2022/01/15 07:44:59;;;;;;;22.05;17.38;;;;;;;;;;5127503;27;20113;-39
2022/01/15 07:47:24;;;;;;;21.50;16.90;;;;;;;;;;5126943;27;20214;-40
2022/01/15 07:49:50;;;;;;;16.98;15.35;;;;;;;;;;5128189;27;20493;-39
2022/01/15 07:52:15;;;;;;;14.25;13.07;;;;;;;;;;5124165;27;20023;-39
2022/01/15 07:54:40;;;;;;;11.95;10.90;;;;;;;;;;5127502;27;20043;-40
2022/01/15 07:57:06;;;;;;;9.20;8.25;;;;;;;;;;5126833;27;20022;-40
2022/01/15 07:59:31;;;;;;;12.15;11.15;;;;;;;;;;5126375;27;20054;-37
2022/01/15 08:01:56;;;;;;;7.80;6.75;;;;;;;;;;5125598;27;20517;-63
2022/01/15 08:04:22;;;;;;;12.77;7.95;;;;;;;;;;5126769;27;20098;-61
2022/01/15 08:06:47;;;;;;;9.60;7.30;;;;;;;;;;5126990;27;20121;-62
2022/01/15 08:09:12;;;;;;;5.28;4.28;;;;;;;;;;5126990;27;20023;-64
2022/01/15 08:11:38;;;;;;;6.60;4.43;;;;;;;;;;5125534;27;20471;-68
2022/01/15 08:14:03;;;;;;;6.03;5.43;;;;;;;;;;5124202;27;20019;-68
2022/01/15 08:16:28;;;;;;;8.93;6.10;;;;;;;;;;5124581;27;20378;-66
2022/01/15 08:18:54;;;;;;;11.52;6.65;;;;;;;;;;5126355;27;20653;-63
2022/01/15 08:21:19;;;;;;;12.95;10.23;;;;;;;;;;5125767;27;20670;-63
2022/01/15 08:23:45;;;;;;;10.88;9.73;;;;;;;;;;5126218;27;20026;-64
2022/01/15 08:26:11;;;;;;;13.50;8.82;;;;;;;;;;5126472;27;20411;-65
2022/01/15 08:28:39;;;;;;;16.73;11.07;;;;;;;;;;5126328;27;20046;-64
2022/01/15 08:31:05;;;;;;;18.52;10.48;;;;;;;;;;5125489;27;20185;-65
2022/01/15 08:33:31;;;;;;;11.30;9.95;;;;;;;;;;5124183;27;20033;-65
2022/01/15 08:35:56;;;;;;;20.02;11.77;;;;;;;;;;5127233;27;20015;-64
2022/01/15 08:38:21;;;;;;;18.13;15.15;;;;;;;;;;5126258;27;20022;-63
2022/01/15 08:40:47;;;;;;;23.75;15.63;;;;;;;;;;5126277;27;20099;-66
2022/01/15 08:43:13;;;;;;;13.60;10.52;;;;;;;;;;5125642;27;20054;-66
2022/01/15 08:45:39;;;;;;;20.80;13.80;;;;;;;;;;5126017;27;20474;-64
2022/01/15 08:48:05;;;;;;;21.73;13.70;;;;;;;;;;5125484;27;20128;-67
2022/01/15 08:50:30;;;;;;;21.75;10.60;;;;;;;;;;5124424;27;20027;-68
2022/01/15 08:52:56;;;;;;;29.08;21.92;;;;;;;;;;5124168;27;20030;-69
2022/01/15 08:55:21;;;;;;;25.85;17.95;;;;;;;;;;5125590;27;20023;-64
2022/01/15 08:57:47;;;;;;;26.80;21.58;;;;;;;;;;5120351;27;20147;-66
2022/01/15 09:00:14;;;;;;;37.05;25.30;;;;;;;;;;5123357;27;20026;-64
2022/01/15 09:02:39;;;;;;;18.25;16.38;;;;;;;;;;5124352;27;20023;-67
2022/01/15 09:05:05;;;;;;;19.13;15.25;;;;;;;;;;5124797;27;20434;-67
2022/01/15 09:07:30;;;;;;;20.33;15.70;;;;;;;;;;5124886;27;20023;-67
2022/01/15 09:09:56;;;;;;;18.77;16.98;;;;;;;;;;5124382;27;20023;-67
2022/01/15 09:12:22;;;;;;;18.90;12.88;;;;;;;;;;5123815;27;20054;-66
2022/01/15 09:14:52;;;;;;;20.15;14.70;;;;;;;;;;5122736;27;20039;-67
2022/01/15 09:17:18;;;;;;;44.45;32.90;;;;;;;;;;5123026;27;20717;-69
2022/01/15 09:19:43;;;;;;;56.38;34.63;;;;;;;;;;5124139;27;20038;-68
2022/01/15 09:22:11;;;;;;;42.95;35.50;;;;;;;;;;5119538;27;20047;-65
2022/01/15 09:24:36;;;;;;;38.22;24.42;;;;;;;;;;5122822;27;20043;-69
2022/01/15 09:30:12;;;;;;;32.28;22.02;;;;;;;;;;5124600;27;20450;-67
2022/01/15 09:32:31;;;;;;;26.45;19.42;;;;;;;;;;5124391;27;20038;-64
2022/01/15 09:34:57;;;;;;;20.83;16.73;;;;;;;;;;5123687;27;20430;-68
2022/01/15 09:37:22;;;;;;;17.23;14.85;;;;;;;;;;5122799;27;20031;-65
2022/01/15 09:39:47;;;;;;;22.63;18.77;;;;;;;;;;5125137;27;20019;-69
2022/01/15 09:42:13;;;;;;;30.10;22.25;;;;;;;;;;5124498;27;20689;-65
2022/01/15 09:44:38;;;;;;;40.47;27.83;;;;;;;;;;5122539;27;20080;-67
2022/01/15 09:47:04;;;;;;;35.65;31.10;;;;;;;;;;5125069;27;20062;-62
2022/01/15 09:49:30;;;;;;;34.22;27.83;;;;;;;;;;5124150;27;20026;-64
2022/01/15 09:51:56;;;;;;;31.83;25.02;;;;;;;;;;5124066;27;20026;-68
2022/01/15 09:54:21;;;;;;;44.13;28.17;;;;;;;;;;5124290;27;20046;-65
2022/01/15 09:56:50;;;;;;;36.83;30.13;;;;;;;;;;5124528;27;20761;-70
2022/01/15 09:59:15;;;;;;;40.35;33.70;;;;;;;;;;5122915;27;20102;-66
2022/01/15 10:01:40;;;;;;;49.30;39.72;;;;;;;;;;5124540;27;20564;-70
2022/01/15 10:04:06;;;;;;;49.38;36.47;;;;;;;;;;5124495;27;20019;-70
2022/01/15 10:06:31;;;;;;;61.15;42.28;;;;;;;;;;5124522;27;20019;-69
2022/01/15 10:09:07;;;;;;;53.55;41.88;;;;;;;;;;5123315;27;20407;-68
2022/01/15 10:11:58;;;;;;;55.97;36.42;;;;;;;;;;5122428;27;20023;-60
2022/01/15 10:14:42;;;;;;;52.88;31.40;;;;;;;;;;5119189;27;20482;-68
2022/01/15 10:17:22;;;;;;;36.83;26.35;;;;;;;;;;5122112;27;20027;-65
2022/01/15 10:19:47;;;;;;;28.42;22.48;;;;;;;;;;5123022;27;20825;-64
2022/01/15 10:22:14;;;;;;;27.33;22.73;;;;;;;;;;5121767;27;20055;-64
2022/01/15 10:24:40;;;;;;;39.63;24.85;;;;;;;;;;5123518;27;20051;-68
2022/01/15 10:27:18;;;;;;;33.35;25.55;;;;;;;;;;5123174;27;20023;-72
2022/01/15 10:29:50;;;;;;;36.42;30.05;;;;;;;;;;5122739;27;20045;-70
2022/01/15 10:32:15;;;;;;;31.92;25.52;;;;;;;;;;5123496;27;20027;-67
2022/01/15 10:34:42;;;;;;;21.00;17.38;;;;;;;;;;5122988;27;20023;-66
2022/01/15 10:37:10;;;;;;;25.30;16.58;;;;;;;;;;5122558;28;20045;-67
2022/01/15 10:39:36;;;;;;;29.27;17.65;;;;;;;;;;5121815;28;20019;-66
2022/01/15 10:42:01;;;;;;;49.10;33.42;;;;;;;;;;5123891;28;20038;-66
2022/01/15 10:44:28;;;;;;;20.40;16.00;;;;;;;;;;5123680;28;20023;-66
2022/01/15 10:47:00;;;;;;;28.63;23.52;;;;;;;;;;5122280;28;20238;-65
2022/01/15 10:49:26;;;;;;;38.25;22.83;;;;;;;;;;5121393;28;20554;-66
2022/01/15 10:52:07;;;;;;;21.45;17.83;;;;;;;;;;5123286;27;20031;-67
2022/01/15 10:54:34;;;;;;;12.48;11.00;;;;;;;;;;5123429;28;20023;-67
2022/01/15 10:57:09;;;;;;;10.23;5.80;;;;;;;;;;5124459;27;20066;-66
2022/01/15 10:59:35;;;;;;;13.52;6.15;;;;;;;;;;5127691;27;20070;-66
2022/01/15 11:02:27;;;;;;;13.82;7.43;;;;;;;;;;5126457;27;20542;-68
2022/01/15 11:04:52;;;;;;;11.07;6.70;;;;;;;;;;5120838;27;20119;-67
2022/01/15 11:07:18;;;;;;;13.73;6.95;;;;;;;;;;5127078;27;20039;-65
2022/01/15 11:09:44;;;;;;;6.60;4.65;;;;;;;;;;5127545;27;20023;-65
2022/01/15 11:12:10;;;;;;;6.97;4.35;;;;;;;;;;5127719;27;20027;-65
2022/01/15 11:14:35;;;;;;;8.40;5.07;;;;;;;;;;5127627;27;20050;-67
2022/01/15 11:17:01;;;;;;;10.70;5.95;;;;;;;;;;5126990;27;20046;-68
2022/01/15 11:19:29;;;;;;;12.30;7.18;;;;;;;;;;5125025;27;20090;-67
2022/01/15 11:21:54;;;;;;;47.13;12.75;;;;;;;;;;5124039;27;20067;-61
2022/01/15 11:24:20;;;;;;;19.08;16.35;;;;;;;;;;5127377;27;20023;-62
2022/01/15 11:26:47;;;;;;;19.95;7.07;;;;;;;;;;5125818;27;20075;-62
2022/01/15 11:29:13;;;;;;;6.85;4.82;;;;;;;;;;5125200;27;20117;-68
2022/01/15 11:31:39;;;;;;;14.77;4.63;;;;;;;;;;5126922;27;20445;-70
2022/01/15 11:34:05;;;;;;;12.50;9.25;;;;;;;;;;5127545;27;20021;-69
2022/01/15 11:36:31;;;;;;;6.13;4.63;;;;;;;;;;5125833;27;20226;-71
2022/01/15 11:38:57;;;;;;;13.93;6.75;;;;;;;;;;5126118;27;20023;-66
2022/01/15 11:41:22;;;;;;;12.88;6.95;;;;;;;;;;5125361;27;20556;-65
2022/01/15 11:43:49;;;;;;;8.40;5.65;;;;;;;;;;5127308;27;20019;-66
2022/01/15 11:46:26;;;;;;;10.27;6.50;;;;;;;;;;5127646;27;20494;-65
2022/01/15 11:48:51;;;;;;;8.52;4.10;;;;;;;;;;5125291;27;20027;-66
2022/01/15 11:51:18;;;;;;;7.28;3.25;;;;;;;;;;5126181;27;20211;-65
2022/01/15 11:54:00;;;;;;;27.75;6.28;;;;;;;;;;5124960;27;20039;-66
2022/01/15 11:56:35;;;;;;;10.73;3.97;;;;;;;;;;5119537;27;20096;-66
2022/01/15 11:59:21;;;;;;;15.18;8.65;;;;;;;;;;5124630;27;20030;-67
2022/01/15 12:01:46;;;;;;;11.30;9.82;;;;;;;;;;5125764;27;20095;-65
2022/01/15 12:04:24;;;;;;;26.67;14.40;;;;;;;;;;5125946;27;20023;-66
2022/01/15 12:07:04;;;;;;;24.30;17.52;;;;;;;;;;5127363;27;20016;-65
2022/01/15 12:09:34;;;;;;;6.10;5.47;;;;;;;;;;5123283;27;20019;-71
2022/01/15 12:12:00;;;;;;;10.38;6.53;;;;;;;;;;5124519;27;20578;-66
2022/01/15 12:14:44;;;;;;;13.23;4.90;;;;;;;;;;5126220;27;20030;-70
2022/01/15 12:17:25;;;;;;;4.13;3.30;;;;;;;;;;5123283;27;20055;-63
2022/01/15 12:19:51;;;;;;;3.92;2.80;;;;;;;;;;5127211;27;20019;-71
2022/01/15 12:22:35;;;;;;;8.45;5.75;;;;;;;;;;5126050;27;20717;-70
2022/01/15 12:25:04;;;;;;;9.40;6.50;;;;;;;;;;5126233;27;20045;-70
2022/01/15 12:27:30;;;;;;;13.95;5.45;;;;;;;;;;5127777;27;20019;-70
2022/01/15 12:30:00;;;;;;;10.27;4.32;;;;;;;;;;5127314;27;20539;-70
2022/01/15 12:32:26;;;;;;;4.72;2.63;;;;;;;;;;5127157;27;20306;-70
2022/01/15 12:34:52;;;;;;;12.18;5.45;;;;;;;;;;5125003;27;20019;-71
2022/01/15 12:37:17;;;;;;;5.80;4.47;;;;;;;;;;5126267;27;20019;-70
2022/01/15 12:39:42;;;;;;;8.18;7.28;;;;;;;;;;5125356;27;20023;-70
2022/01/15 12:42:10;;;;;;;11.52;7.93;;;;;;;;;;5126644;27;20497;-70
2022/01/15 12:44:46;;;;;;;10.52;8.52;;;;;;;;;;5124927;27;20027;-71
2022/01/15 12:47:12;;;;;;;13.85;8.90;;;;;;;;;;5125327;27;20539;-70
2022/01/15 12:49:38;;;;;;;24.52;10.35;;;;;;;;;;5125343;27;20050;-70
2022/01/15 12:52:07;;;;;;;12.48;5.32;;;;;;;;;;5125926;27;20027;-71
2022/01/15 12:54:33;;;;;;;12.68;4.60;;;;;;;;;;5126266;27;20483;-71
2022/01/15 12:56:58;;;;;;;10.38;5.75;;;;;;;;;;5125491;27;20030;-74
2022/01/15 12:59:27;;;;;;;7.40;4.47;;;;;;;;;;5126554;27;20080;-73
2022/01/15 13:01:52;;;;;;;10.18;7.45;;;;;;;;;;5126638;27;20034;-73
2022/01/15 13:04:18;;;;;;;16.20;7.07;;;;;;;;;;5107885;27;20469;-72
2022/01/15 13:06:49;;;;;;;14.20;5.47;;;;;;;;;;5126761;27;20474;-73
2022/01/15 13:09:15;;;;;;;5.90;3.92;;;;;;;;;;5124367;27;20087;-73
2022/01/15 13:11:48;;;;;;;8.45;4.00;;;;;;;;;;5126043;27;20513;-75
2022/01/15 13:14:13;;;;;;;6.10;3.95;;;;;;;;;;5125886;27;20029;-75
2022/01/15 13:16:39;;;;;;;4.28;3.17;;;;;;;;;;5124652;27;20011;-72
2022/01/15 13:19:06;;;;;;;8.93;5.25;;;;;;;;;;5125244;27;20038;-73
2022/01/15 13:21:36;;;;;;;16.33;6.43;;;;;;;;;;5125749;27;20090;-71
2022/01/15 13:24:09;;;;;;;10.20;4.15;;;;;;;;;;5123599;27;20099;-72
2022/01/15 13:26:42;;;;;;;9.73;4.70;;;;;;;;;;5124494;27;20027;-67
2022/01/15 13:29:11;;;;;;;7.10;6.43;;;;;;;;;;5123651;27;20011;-68
2022/01/15 13:31:38;;;;;;;8.93;4.88;;;;;;;;;;5125698;27;20074;-72
2022/01/15 13:34:09;;;;;;;15.60;9.55;;;;;;;;;;5123499;27;20027;-69
2022/01/15 13:36:34;;;;;;;;;;;;;;;;;;5123586;27;20079;-63
2022/01/15 13:39:00;;;;;;;4.72;3.83;;;;;;;;;;5122898;27;20329;-63
2022/01/15 13:41:30;;;;;;;6.57;4.18;;;;;;;;;;5126178;27;20067;-62
2022/01/15 13:43:56;;;;;;;14.50;12.30;;;;;;;;;;5125317;27;20137;-62
2022/01/15 13:46:27;;;;;;;9.45;4.57;;;;;;;;;;5124514;27;20117;-68
2022/01/15 13:48:58;;;;;;;4.95;3.03;;;;;;;;;;5123693;27;20031;-70
2022/01/15 13:54:09;;;;;;;3.05;1.83;;;;;;;;;;5125036;27;20062;-73
2022/01/15 13:56:41;;;;;;;8.20;5.15;;;;;;;;;;5124983;27;20023;-66
2022/01/15 13:59:08;;;;;;;6.65;4.57;;;;;;;;;;5122768;27;20031;-61
2022/01/15 14:01:35;;;;;;;6.57;2.45;;;;;;;;;;5123521;27;20584;-60
2022/01/15 14:04:24;;;;;;;9.85;7.57;;;;;;;;;;5125124;27;20039;-61
2022/01/15 14:06:49;;;;;;;5.85;5.20;;;;;;;;;;5124463;27;20027;-61
2022/01/15 14:09:15;;;;;;;7.82;3.13;;;;;;;;;;5123749;27;20489;-59
2022/01/15 14:12:00;;;;;;;5.90;3.42;;;;;;;;;;5123213;27;20030;-60
2022/01/15 14:14:25;;;;;;;9.82;4.68;;;;;;;;;;5124362;27;20667;-60
2022/01/15 14:16:54;;;;;;;10.98;6.45;;;;;;;;;;5124963;27;20043;-61
2022/01/15 14:22:18;;;;;;;7.53;4.95;;;;;;;;;;5121532;27;20047;-61
2022/01/15 14:24:44;;;;;;;10.25;4.80;;;;;;;;;;5117369;27;20035;-61
2022/01/15 14:27:35;;;;;;;9.13;4.05;;;;;;;;;;5122332;27;20518;-61
2022/01/15 14:30:00;;;;;;;;;;;;;;;;;;5119102;27;20031;-61
2022/01/15 14:32:29;;;;;;;5.70;4.40;;;;;;;;;;5123608;27;19922;-62
2022/01/15 14:34:55;;;;;;;8.20;5.70;;;;;;;;;;5118219;27;20802;-61
2022/01/15 14:37:21;;;;;;;17.30;10.48;;;;;;;;;;5122411;28;20023;-61
2022/01/15 14:39:46;;;;;;;15.35;11.13;;;;;;;;;;5124185;28;20084;-61
2022/01/15 14:42:11;;;;;;;9.27;5.97;;;;;;;;;;5124188;27;20771;-61
2022/01/15 14:44:37;;;;;;;13.15;7.22;;;;;;;;;;5119226;27;20593;-61
2022/01/15 14:47:02;;;;;;;9.25;7.75;;;;;;;;;;5122070;28;20080;-61
2022/01/15 14:49:28;;;;;;;12.13;7.35;;;;;;;;;;5120372;28;20475;-61
2022/01/15 14:51:53;;;;;;;9.95;5.97;;;;;;;;;;5119177;28;20022;-61
2022/01/15 14:54:18;;;;;;;13.27;9.15;;;;;;;;;;5119648;28;20726;-61
2022/01/15 14:56:44;;;;;;;7.30;6.13;;;;;;;;;;5121628;28;20022;-61
2022/01/15 14:59:09;;;;;;;10.38;3.35;;;;;;;;;;5119324;27;20027;-63
2022/01/15 15:01:34;;;;;;;2.80;2.28;;;;;;;;;;5118671;28;20019;-61
2022/01/15 15:04:04;;;;;;;5.85;3.42;;;;;;;;;;5122037;27;20033;-61